createdAt,value
2022-10-06T00:00:15.362Z,11.70
2022-10-06T00:02:43.464Z,11.70
2022-10-06T00:05:11.619Z,11.70
2022-10-06T00:07:39.829Z,11.70
2022-10-06T00:10:10.097Z,11.70
2022-10-06T00:15:14.379Z,11.70
2022-10-06T00:17:42.929Z,11.60
2022-10-06T00:20:12.249Z,11.60
2022-10-06T00:22:43.226Z,11.60
2022-10-06T00:25:13.804Z,11.50
2022-10-06T00:27:45.176Z,11.40
2022-10-06T00:30:18.689Z,11.40
2022-10-06T00:32:53.119Z,11.40
2022-10-06T00:35:21.726Z,11.30
2022-10-06T00:37:50.143Z,11.30
2022-10-06T00:40:21.375Z,11.30
2022-10-06T00:42:54.339Z,11.30
2022-10-06T00:45:27.182Z,11.30
2022-10-06T00:47:58.796Z,11.30
2022-10-06T00:50:30.716Z,11.40
2022-10-06T00:52:59.793Z,11.40
2022-10-06T00:55:28.015Z,11.50
2022-10-06T00:58:00.288Z,11.50
2022-10-06T01:00:29.031Z,11.50
2022-10-06T01:03:03.155Z,11.50
2022-10-06T01:05:34.182Z,11.50
2022-10-06T01:08:03.022Z,11.50
2022-10-06T01:10:31.185Z,11.50
2022-10-06T01:13:01.019Z,11.50
2022-10-06T01:15:34.053Z,11.50
2022-10-06T01:18:09.217Z,11.50
2022-10-06T01:20:38.464Z,11.50
2022-10-06T01:23:10.233Z,11.50
2022-10-06T01:25:38.926Z,11.50
2022-10-06T01:28:11.797Z,11.50
2022-10-06T01:30:50.999Z,11.50
2022-10-06T01:33:20.972Z,11.60
2022-10-06T01:35:52.967Z,11.70
2022-10-06T01:40:56.667Z,11.90
2022-10-06T01:43:24.771Z,12.30
2022-10-06T01:45:57.147Z,12.40
2022-10-06T01:48:26.979Z,12.90
2022-10-06T01:50:57.876Z,12.90
2022-10-06T01:55:59.797Z,14.40
2022-10-06T01:58:30.591Z,14.70
2022-10-06T02:00:59.487Z,14.70
2022-10-06T02:05:58.783Z,14.90
2022-10-06T02:10:59.816Z,15.20
2022-10-06T02:13:31.261Z,15.10
2022-10-06T02:15:59.985Z,15.10
2022-10-06T02:18:28.696Z,15.10
2022-10-06T02:20:57.208Z,15.00
2022-10-06T02:23:25.304Z,15.10
2022-10-06T02:26:00.924Z,15.20
2022-10-06T02:28:30.110Z,15.30
2022-10-06T02:31:02.694Z,15.20
2022-10-06T02:33:30.984Z,15.20
2022-10-06T02:35:59.412Z,15.10
2022-10-06T02:38:30.665Z,15.00
2022-10-06T02:41:02.165Z,15.10
2022-10-06T02:43:33.101Z,15.00
2022-10-06T02:46:04.133Z,15.00
2022-10-06T02:48:33.299Z,14.90
2022-10-06T02:51:03.482Z,14.90
2022-10-06T02:58:32.012Z,14.90
2022-10-06T03:01:05.764Z,15.00
2022-10-06T03:03:34.929Z,14.90
2022-10-06T03:06:04.903Z,14.90
2022-10-06T03:08:35.559Z,14.80
2022-10-06T03:11:06.840Z,14.80
2022-10-06T03:16:03.771Z,14.70
2022-10-06T03:21:02.189Z,14.70
2022-10-06T03:23:30.654Z,14.70
2022-10-06T03:25:58.898Z,14.80
2022-10-06T03:28:29.487Z,14.80
2022-10-06T03:31:02.718Z,14.90
2022-10-06T03:33:32.228Z,14.60
2022-10-06T03:38:32.721Z,14.60
2022-10-06T03:41:06.721Z,14.70
2022-10-06T03:43:37.432Z,14.70
2022-10-06T03:46:07.769Z,14.70
2022-10-06T03:48:36.904Z,14.70
2022-10-06T03:51:06.948Z,14.60
2022-10-06T03:53:36.204Z,14.60
2022-10-06T03:56:07.464Z,14.50
2022-10-06T03:58:39.285Z,14.50
2022-10-06T04:01:10.106Z,14.50
2022-10-06T04:03:38.640Z,14.50
2022-10-06T04:06:09.020Z,14.50
2022-10-06T04:08:38.845Z,14.50
2022-10-06T04:11:07.773Z,14.50
2022-10-06T04:13:37.830Z,14.40
2022-10-06T04:16:18.153Z,14.40
2022-10-06T04:18:47.740Z,14.50
2022-10-06T04:21:16.464Z,14.50
2022-10-06T04:26:16.844Z,14.50
2022-10-06T04:28:50.283Z,14.50
2022-10-06T04:31:21.168Z,14.40
2022-10-06T04:33:53.553Z,14.40
2022-10-06T04:36:25.095Z,14.40
2022-10-06T04:38:58.902Z,14.40
2022-10-06T04:41:31.995Z,14.40
2022-10-06T04:44:02.581Z,14.40
2022-10-06T04:46:47.468Z,14.40
2022-10-06T04:49:20.257Z,14.30
2022-10-06T04:51:50.565Z,14.30
2022-10-06T04:54:19.656Z,14.30
2022-10-06T04:56:51.087Z,14.20
2022-10-06T04:59:44.899Z,14.20
2022-10-06T05:02:17.671Z,14.10
2022-10-06T05:04:47.689Z,14.10
2022-10-06T05:07:17.365Z,14.00
2022-10-06T05:09:45.972Z,14.00
2022-10-06T05:12:16.596Z,13.90
2022-10-06T05:14:47.051Z,13.90
2022-10-06T05:17:16.380Z,14.00
2022-10-06T05:19:46.765Z,13.80
2022-10-06T05:22:15.059Z,13.70
2022-10-06T05:24:43.600Z,13.70
2022-10-06T05:27:12.813Z,13.70
2022-10-06T05:29:43.720Z,13.60
2022-10-06T05:32:13.715Z,13.50
2022-10-06T05:34:42.344Z,13.50
2022-10-06T05:37:10.511Z,13.60
2022-10-06T05:39:40.343Z,13.60
2022-10-06T05:42:08.457Z,13.50
2022-10-06T05:44:36.844Z,13.50
2022-10-06T05:47:09.479Z,13.50
2022-10-06T05:49:39.021Z,13.40
2022-10-06T05:52:07.551Z,13.40
2022-10-06T05:54:37.895Z,13.30
2022-10-06T05:57:07.684Z,13.30
2022-10-06T05:59:36.775Z,13.30
2022-10-06T06:02:06.181Z,13.30
2022-10-06T06:04:40.695Z,13.30
2022-10-06T06:07:10.144Z,13.40
2022-10-06T06:09:40.003Z,13.30
2022-10-06T06:12:08.546Z,13.20
2022-10-06T06:15:00.667Z,13.20
2022-10-06T06:17:35.450Z,13.10
2022-10-06T06:20:08.395Z,13.10
2022-10-06T06:22:36.901Z,13.10
2022-10-06T06:25:07.749Z,13.20
2022-10-06T06:27:39.211Z,13.10
2022-10-06T06:30:09.719Z,13.20
2022-10-06T06:32:38.406Z,13.10
2022-10-06T06:35:10.370Z,12.90
2022-10-06T06:37:39.005Z,12.90
2022-10-06T06:40:08.331Z,12.70
2022-10-06T06:42:39.373Z,12.60
2022-10-06T06:45:40.946Z,12.60
2022-10-06T06:48:30.576Z,13.00
2022-10-06T06:51:00.376Z,13.30
2022-10-06T06:53:32.021Z,13.40
2022-10-06T06:56:04.161Z,13.50
2022-10-06T06:58:35.944Z,13.50
2022-10-06T07:01:13.646Z,13.60
2022-10-06T07:03:56.997Z,13.70
2022-10-06T07:06:29.977Z,13.80
2022-10-06T07:09:01.916Z,14.10
2022-10-06T07:11:32.480Z,14.10
2022-10-06T07:14:03.709Z,14.30
2022-10-06T07:16:50.629Z,14.40
2022-10-06T07:19:52.489Z,14.40
2022-10-06T07:22:42.751Z,14.30
2022-10-06T07:25:25.776Z,14.30
2022-10-06T07:28:02.597Z,14.50
2022-10-06T07:30:40.445Z,14.80
2022-10-06T07:33:14.621Z,14.90
2022-10-06T07:35:44.866Z,14.90
2022-10-06T07:38:16.257Z,15.00
2022-10-06T07:41:18.492Z,14.70
2022-10-06T07:43:43.514Z,14.40
2022-10-06T07:46:13.048Z,14.30
2022-10-06T07:48:49.700Z,14.40
2022-10-06T07:51:21.447Z,14.30
2022-10-06T07:53:53.771Z,14.30
2022-10-06T07:56:33.283Z,14.40
2022-10-06T07:59:01.637Z,14.30
2022-10-06T08:01:31.607Z,14.30
2022-10-06T08:04:00.691Z,14.60
2022-10-06T08:06:31.443Z,14.80
2022-10-06T08:09:01.662Z,15.00
2022-10-06T08:11:30.176Z,15.10
2022-10-06T08:13:59.162Z,15.10
2022-10-06T08:16:30.447Z,15.00
2022-10-06T08:19:00.392Z,14.90
2022-10-06T08:21:31.530Z,15.20
2022-10-06T08:24:03.109Z,15.40
2022-10-06T08:26:33.228Z,15.30
2022-10-06T08:29:04.553Z,15.30
2022-10-06T08:31:33.873Z,15.60
2022-10-06T08:34:03.219Z,15.40
2022-10-06T08:36:32.735Z,15.60
2022-10-06T08:39:02.633Z,15.40
2022-10-06T08:41:39.877Z,15.40
2022-10-06T08:44:20.531Z,15.70
2022-10-06T08:46:54.552Z,15.70
2022-10-06T08:49:26.871Z,16.10
2022-10-06T08:52:06.637Z,16.30
2022-10-06T08:54:41.734Z,16.40
2022-10-06T08:57:17.587Z,16.40
2022-10-06T08:59:47.931Z,16.50
2022-10-06T09:02:28.805Z,15.80
2022-10-06T09:05:01.016Z,15.70
2022-10-06T09:07:42.050Z,16.20
2022-10-06T09:10:29.700Z,16.30
2022-10-06T09:13:06.591Z,16.20
2022-10-06T09:15:40.771Z,15.80
2022-10-06T09:18:16.482Z,15.50
2022-10-06T09:20:51.429Z,15.80
2022-10-06T09:23:40.849Z,15.90
2022-10-06T09:26:13.568Z,15.90
2022-10-06T09:28:42.121Z,16.10
2022-10-06T09:31:22.086Z,16.00
2022-10-06T09:33:53.158Z,15.90
2022-10-06T09:36:24.150Z,15.80
2022-10-06T09:38:54.283Z,15.80
2022-10-06T09:41:31.713Z,15.70
2022-10-06T09:44:02.564Z,15.70
2022-10-06T09:46:33.924Z,15.90
2022-10-06T09:49:17.704Z,15.70
2022-10-06T09:52:15.074Z,15.80
2022-10-06T09:54:46.370Z,16.00
2022-10-06T09:57:21.436Z,16.00
2022-10-06T09:59:50.302Z,16.30
2022-10-06T10:02:30.538Z,16.50
2022-10-06T10:04:59.480Z,16.50
2022-10-06T10:07:29.455Z,16.60
2022-10-06T10:10:20.898Z,16.90
2022-10-06T10:12:54.806Z,16.90
2022-10-06T10:15:31.084Z,16.70
2022-10-06T10:18:03.300Z,16.60
2022-10-06T10:20:37.790Z,16.80
2022-10-06T10:23:19.829Z,16.70
2022-10-06T10:26:08.504Z,16.80
2022-10-06T10:29:10.882Z,16.30
2022-10-06T10:31:50.050Z,16.80
2022-10-06T10:34:32.815Z,16.90
2022-10-06T10:37:06.924Z,17.00
2022-10-06T10:39:39.862Z,17.50
2022-10-06T10:42:21.923Z,17.80
2022-10-06T10:44:56.220Z,17.80
2022-10-06T10:47:29.244Z,17.20
2022-10-06T10:50:03.851Z,17.30
2022-10-06T10:52:38.704Z,17.70
2022-10-06T10:55:19.844Z,17.70
2022-10-06T10:57:49.625Z,17.90
2022-10-06T11:00:25.394Z,18.10
2022-10-06T11:02:56.539Z,18.30
2022-10-06T11:05:45.428Z,18.00
2022-10-06T11:08:23.095Z,17.80
2022-10-06T11:10:55.019Z,17.90
2022-10-06T11:13:29.193Z,17.70
2022-10-06T11:16:19.445Z,17.60
2022-10-06T11:19:02.617Z,18.00
2022-10-06T11:21:36.710Z,18.00
2022-10-06T11:24:15.695Z,18.10
2022-10-06T11:27:11.233Z,17.60
2022-10-06T11:29:47.462Z,18.40
2022-10-06T11:32:32.532Z,18.30
2022-10-06T11:35:04.672Z,18.40
2022-10-06T11:37:41.235Z,18.20
2022-10-06T11:40:39.536Z,19.10
2022-10-06T11:43:17.170Z,19.10
2022-10-06T11:45:59.410Z,18.80
2022-10-06T11:48:30.495Z,17.70
2022-10-06T11:51:23.254Z,17.70
2022-10-06T11:53:52.002Z,17.60
2022-10-06T11:56:46.646Z,17.60
2022-10-06T11:59:26.562Z,17.40
2022-10-06T12:02:00.961Z,17.40
2022-10-06T12:04:31.549Z,17.20
2022-10-06T12:07:02.111Z,17.30
2022-10-06T12:09:52.619Z,17.50
2022-10-06T12:12:47.740Z,17.50
2022-10-06T12:19:17.132Z,18.00
2022-10-06T12:21:57.345Z,18.50
2022-10-06T12:24:43.470Z,19.00
2022-10-06T12:27:40.564Z,18.90
2022-10-06T12:30:21.261Z,19.20
2022-10-06T12:32:57.467Z,19.40
2022-10-06T12:35:34.114Z,19.30
2022-10-06T12:38:06.204Z,19.00
2022-10-06T12:40:54.534Z,18.60
2022-10-06T12:43:55.379Z,18.50
2022-10-06T12:46:39.772Z,18.60
2022-10-06T12:49:47.062Z,18.30
2022-10-06T12:52:45.019Z,18.60
2022-10-06T12:55:39.785Z,19.20
2022-10-06T12:58:16.954Z,19.20
2022-10-06T13:00:45.722Z,19.00
2022-10-06T13:03:20.714Z,19.00
2022-10-06T13:05:54.020Z,19.30
2022-10-06T13:08:24.706Z,18.60
2022-10-06T13:11:12.729Z,18.60
2022-10-06T13:13:48.212Z,18.70
2022-10-06T13:16:21.817Z,18.50
2022-10-06T13:18:54.892Z,18.20
2022-10-06T13:21:23.996Z,18.40
2022-10-06T13:23:55.376Z,18.40
2022-10-06T13:26:28.126Z,18.70
2022-10-06T13:28:58.503Z,18.90
2022-10-06T13:31:28.731Z,18.90
2022-10-06T13:34:00.829Z,18.90
2022-10-06T13:36:30.652Z,18.80
2022-10-06T13:38:59.273Z,18.60
2022-10-06T13:41:32.237Z,18.60
2022-10-06T13:44:03.552Z,18.60
2022-10-06T13:46:39.751Z,18.50
2022-10-06T13:49:20.315Z,19.00
2022-10-06T13:51:52.041Z,19.20
2022-10-06T13:54:25.337Z,19.00
2022-10-06T13:56:55.433Z,19.00
2022-10-06T13:59:38.754Z,18.80
2022-10-06T14:02:25.867Z,18.90
2022-10-06T14:05:27.048Z,18.80
2022-10-06T14:07:59.017Z,18.90
2022-10-06T14:10:32.010Z,18.90
2022-10-06T14:13:03.113Z,19.10
2022-10-06T14:15:37.646Z,19.00
2022-10-06T14:18:08.558Z,19.10
2022-10-06T14:20:49.505Z,19.10
2022-10-06T14:23:35.168Z,18.70
2022-10-06T14:26:03.841Z,18.80
2022-10-06T14:33:31.081Z,18.60
2022-10-06T14:35:59.389Z,18.80
2022-10-06T14:38:27.595Z,18.80
2022-10-06T14:40:55.684Z,18.60
2022-10-06T14:43:25.033Z,18.50
2022-10-06T14:45:58.240Z,18.40
2022-10-06T14:48:29.528Z,18.40
2022-10-06T14:50:57.727Z,18.50
2022-10-06T14:53:28.127Z,18.60
2022-10-06T14:56:01.362Z,18.80
2022-10-06T14:58:29.918Z,18.60
2022-10-06T15:01:07.420Z,18.80
2022-10-06T15:03:38.354Z,18.90
2022-10-06T15:06:26.256Z,18.40
2022-10-06T15:08:57.188Z,18.40
2022-10-06T15:11:28.321Z,18.30
2022-10-06T15:13:58.681Z,18.30
2022-10-06T15:16:29.751Z,18.50
2022-10-06T15:19:01.364Z,18.30
2022-10-06T15:21:32.435Z,18.20
2022-10-06T15:24:02.780Z,18.20
2022-10-06T15:26:49.378Z,18.30
2022-10-06T15:29:18.433Z,18.50
2022-10-06T15:31:52.734Z,18.30
2022-10-06T15:34:23.392Z,18.50
2022-10-06T15:36:52.557Z,18.50
2022-10-06T15:39:23.736Z,18.20
2022-10-06T15:41:53.123Z,18.20
2022-10-06T15:46:53.193Z,18.00
2022-10-06T15:49:23.033Z,18.00
2022-10-06T15:51:53.312Z,17.90
2022-10-06T15:54:23.794Z,17.80
2022-10-06T15:56:53.662Z,17.80
2022-10-06T15:59:25.264Z,17.70
2022-10-06T16:01:58.541Z,17.80
2022-10-06T16:04:34.652Z,17.70
2022-10-06T16:07:03.679Z,17.70
2022-10-06T16:09:33.955Z,17.60
2022-10-06T16:12:04.213Z,17.60
2022-10-06T16:14:36.087Z,17.70
2022-10-06T16:17:07.175Z,17.70
2022-10-06T16:19:36.901Z,17.60
2022-10-06T16:22:06.666Z,17.60
2022-10-06T16:24:35.476Z,17.30
2022-10-06T16:32:02.120Z,17.20
2022-10-06T16:34:35.288Z,17.00
2022-10-06T16:39:44.282Z,16.30
2022-10-06T16:42:13.448Z,15.80
2022-10-06T16:44:45.284Z,15.50
2022-10-06T16:49:45.981Z,15.20
2022-10-06T16:52:16.638Z,15.10
2022-10-06T16:54:45.270Z,15.00
2022-10-06T16:57:13.862Z,14.80
2022-10-06T16:59:46.650Z,14.70
2022-10-06T17:02:15.496Z,14.60
2022-10-06T17:07:14.929Z,14.40
2022-10-06T17:12:34.958Z,14.00
2022-10-06T17:15:03.852Z,14.10
2022-10-06T17:17:32.353Z,13.90
2022-10-06T17:20:05.126Z,13.90
2022-10-06T17:25:04.767Z,13.80
2022-10-06T17:27:39.604Z,13.80
2022-10-06T17:30:13.158Z,13.70
2022-10-06T17:35:16.580Z,13.60
2022-10-06T17:37:46.830Z,13.60
2022-10-06T17:40:19.696Z,13.50
2022-10-06T17:42:48.871Z,13.30
2022-10-06T17:45:21.220Z,13.10
2022-10-06T17:47:52.314Z,13.10
2022-10-06T17:52:53.329Z,12.60
2022-10-06T17:57:51.227Z,12.50
2022-10-06T18:00:20.846Z,12.50
2022-10-06T18:03:00.391Z,12.50
2022-10-06T18:08:04.016Z,12.20
2022-10-06T18:10:50.281Z,12.40
2022-10-06T18:13:19.556Z,12.20
2022-10-06T18:15:50.976Z,12.20
2022-10-06T18:18:29.719Z,12.20
2022-10-06T18:26:24.332Z,12.30
2022-10-06T18:31:25.023Z,12.20
2022-10-06T18:36:46.034Z,12.10
2022-10-06T18:39:16.858Z,13.00
2022-10-06T18:41:46.481Z,11.90
2022-10-06T18:47:23.156Z,11.90
2022-10-06T18:49:53.429Z,11.80
2022-10-06T18:54:56.997Z,11.80
2022-10-06T18:57:28.227Z,11.80
2022-10-06T18:59:58.964Z,11.80
2022-10-06T19:02:27.498Z,11.80
2022-10-06T19:04:57.896Z,11.70
2022-10-06T19:07:30.730Z,11.70
2022-10-06T19:09:59.271Z,11.60
2022-10-06T19:12:28.828Z,11.60
2022-10-06T19:19:57.791Z,11.40
2022-10-06T19:22:27.161Z,11.30
2022-10-06T19:24:58.159Z,11.40
2022-10-06T19:27:28.148Z,11.20
2022-10-06T19:32:28.544Z,11.00
2022-10-06T19:34:59.038Z,10.90
2022-10-06T19:37:31.435Z,10.70
2022-10-06T19:45:21.720Z,10.60
2022-10-06T20:18:05.104Z,10.10
2022-10-06T20:20:34.013Z,10.00
2022-10-06T20:23:02.384Z,10.00
2022-10-06T20:25:34.236Z,10.00
2022-10-06T20:28:08.196Z,10.00
2022-10-06T20:30:37.369Z,10.00
2022-10-06T20:33:07.484Z,10.00
2022-10-06T20:35:35.576Z,9.90
2022-10-06T20:38:08.979Z,9.80
2022-10-06T20:40:47.038Z,9.80
2022-10-06T20:43:16.908Z,9.70
2022-10-06T20:45:45.196Z,9.80
2022-10-06T20:48:14.370Z,10.00
2022-10-06T20:50:43.419Z,9.90
2022-10-06T20:53:13.091Z,9.80
2022-10-06T20:55:41.242Z,9.80
2022-10-06T20:58:09.679Z,9.80
2022-10-06T21:00:39.282Z,9.70
2022-10-06T21:03:08.740Z,9.70
2022-10-06T21:05:36.966Z,9.70
2022-10-06T21:08:05.083Z,9.70
2022-10-06T21:10:33.180Z,9.80
2022-10-06T21:13:01.618Z,9.90
2022-10-06T21:15:29.804Z,10.00
2022-10-06T21:17:59.561Z,10.00
2022-10-06T21:20:27.626Z,9.80
2022-10-06T21:22:55.971Z,9.80
2022-10-06T21:25:24.396Z,9.70
2022-10-06T21:27:52.557Z,9.70
2022-10-06T21:30:20.865Z,9.70
2022-10-06T21:32:49.135Z,9.50
2022-10-06T21:35:21.723Z,9.30
2022-10-06T21:37:50.793Z,9.30
2022-10-06T21:40:19.315Z,9.30
2022-10-06T21:42:47.744Z,9.30
2022-10-06T21:45:16.307Z,9.30
2022-10-06T21:47:44.858Z,9.30
2022-10-06T21:50:13.723Z,9.20
2022-10-06T21:52:44.138Z,9.10
2022-10-06T21:55:14.837Z,9.10
2022-10-06T21:57:43.184Z,8.90
2022-10-06T22:00:14.895Z,8.80
2022-10-06T22:02:43.182Z,8.70
2022-10-06T22:05:11.456Z,8.70
2022-10-06T22:07:39.718Z,8.70
2022-10-06T22:10:09.807Z,8.60
2022-10-06T22:12:39.937Z,8.70
2022-10-06T22:15:09.212Z,8.70
2022-10-06T22:17:37.609Z,8.70
2022-10-06T22:20:06.777Z,8.80
2022-10-06T22:22:34.919Z,8.80
2022-10-06T22:25:03.033Z,8.70
2022-10-06T22:27:32.908Z,8.70
2022-10-06T22:30:01.227Z,8.70
2022-10-06T22:32:30.105Z,8.70
2022-10-06T22:34:58.243Z,8.60
2022-10-06T22:37:26.648Z,8.60
2022-10-06T22:39:54.782Z,8.60
2022-10-06T22:42:22.856Z,8.60
2022-10-06T22:44:52.230Z,8.60
2022-10-06T22:47:20.260Z,8.60
2022-10-06T22:49:51.665Z,8.50
2022-10-06T22:52:19.773Z,8.50
2022-10-06T22:57:18.487Z,8.60
2022-10-06T22:59:46.632Z,8.60
2022-10-06T23:02:16.137Z,8.50
2022-10-06T23:04:44.172Z,8.50
2022-10-06T23:07:12.292Z,8.40
2022-10-06T23:09:42.714Z,8.50
2022-10-06T23:12:10.778Z,8.40
2022-10-06T23:14:38.784Z,8.30
2022-10-06T23:17:06.899Z,8.40
2022-10-06T23:19:36.461Z,8.40
2022-10-06T23:22:04.982Z,8.40
2022-10-06T23:24:33.056Z,8.40
2022-10-06T23:27:04.256Z,8.40
2022-10-06T23:29:32.430Z,8.40
2022-10-06T23:32:00.646Z,8.40
2022-10-06T23:36:58.641Z,8.60
2022-10-06T23:39:27.640Z,8.60
2022-10-06T23:41:55.813Z,8.60
2022-10-06T23:44:24.147Z,8.70
2022-10-06T23:46:52.752Z,8.60
2022-10-06T23:49:20.962Z,8.60
2022-10-06T23:51:49.126Z,8.50
2022-10-06T23:54:18.921Z,8.50
2022-10-06T23:56:51.497Z,8.40
2022-10-06T23:59:19.760Z,8.30
